SBOSBO CFU / LGKR
Speedbird OnlineSpeedbird Online CFU / LGKR

Ioannis Kapodistrias International Airport
02:39 6°C

Location Kerkyra/corfu, Greece
Latitude: 39.601898193359375
Longitude: 19.911699295043945
Web Wikipedia
Altitude 2 Meter / 6 Feet
Distance 2,020 KM / 1,255 Miles
from London.
Time Zone UTC +2 hours (Europe/Athens)
Codes IATA: CFU
ICAO: LGKR
Currency £1 equals EUR 1.13
Runways
RunwayLength (m)Surface
162375Asphalt
342375Asphalt
Radio
TypeDescriptionFrequency
A/GKERKIRA RDO563.7
APPKERKIRA APP118.075
ATISATIS126.35
TWRKERKIRA TWR120.85
Live ATC
METAR LGKR 081420Z 16006KT CAVOK 10/M04 Q1030 NOSIG
TAF TAF LGKR 081100Z 0812/0912 07014KT 9999 FEW020
Weather As Of 09 Feb 2023 02:39
Description Few clouds
Wind 17 km/h from East (80°)
Cloud Cover 20%
Precipitation Rain: none, Snow: none
Sunrise 07:40
Sunset 18:08



Support Speedbird Online

© 2017-2023 Speedbird Online